sensor_id;sensor_type;location;lat;lon;timestamp;pressure;altitude;pressure_sealevel;temperature;humidity
34328;BME280;20588;48.840;10.064;2023-06-22T00:00:56;96578.63;;;20.25;100.00
34328;BME280;20588;48.840;10.064;2023-06-22T00:03:24;96574.72;;;20.12;100.00
34328;BME280;20588;48.840;10.064;2023-06-22T00:05:51;96578.66;;;20.05;100.00
34328;BME280;20588;48.840;10.064;2023-06-22T00:08:18;96575.84;;;19.96;100.00
34328;BME280;20588;48.840;10.064;2023-06-22T00:10:45;96583.69;;;19.86;100.00
34328;BME280;20588;48.840;10.064;2023-06-22T00:13:12;96581.88;;;19.77;100.00
34328;BME280;20588;48.840;10.064;2023-06-22T00:15:40;96574.34;;;19.70;100.00
34328;BME280;20588;48.840;10.064;2023-06-22T00:18:07;96574.88;;;19.67;100.00
34328;BME280;20588;48.840;10.064;2023-06-22T00:20:33;96566.00;;;19.63;100.00
34328;BME280;20588;48.840;10.064;2023-06-22T00:23:03;96556.13;;;19.55;100.00
34328;BME280;20588;48.840;10.064;2023-06-22T00:25:37;96562.88;;;19.51;100.00
34328;BME280;20588;48.840;10.064;2023-06-22T00:28:04;96561.06;;;19.46;100.00
34328;BME280;20588;48.840;10.064;2023-06-22T00:30:31;96556.66;;;19.42;100.00
34328;BME280;20588;48.840;10.064;2023-06-22T00:32:58;96551.69;;;19.40;100.00
34328;BME280;20588;48.840;10.064;2023-06-22T00:35:25;96554.56;;;19.39;100.00
34328;BME280;20588;48.840;10.064;2023-06-22T00:37:56;96554.34;;;19.35;100.00
34328;BME280;20588;48.840;10.064;2023-06-22T00:40:29;96557.97;;;19.34;100.00
34328;BME280;20588;48.840;10.064;2023-06-22T00:42:56;96559.56;;;19.30;100.00
34328;BME280;20588;48.840;10.064;2023-06-22T00:45:24;96551.19;;;19.23;100.00
34328;BME280;20588;48.840;10.064;2023-06-22T00:47:56;96554.59;;;19.19;100.00
34328;BME280;20588;48.840;10.064;2023-06-22T00:50:24;96553.28;;;19.11;100.00
34328;BME280;20588;48.840;10.064;2023-06-22T00:52:56;96547.53;;;19.04;100.00
34328;BME280;20588;48.840;10.064;2023-06-22T00:55:23;96553.00;;;18.98;100.00
34328;BME280;20588;48.840;10.064;2023-06-22T00:57:49;96557.44;;;18.92;100.00
34328;BME280;20588;48.840;10.064;2023-06-22T01:00:16;96555.63;;;18.88;100.00
34328;BME280;20588;48.840;10.064;2023-06-22T01:02:46;96552.75;;;18.84;100.00
34328;BME280;20588;48.840;10.064;2023-06-22T01:05:13;96547.78;;;18.83;100.00
34328;BME280;20588;48.840;10.064;2023-06-22T01:08:00;96551.19;;;18.78;100.00
34328;BME280;20588;48.840;10.064;2023-06-22T01:10:43;96537.91;;;18.75;100.00
34328;BME280;20588;48.840;10.064;2023-06-22T01:16:14;96550.66;;;18.66;100.00
34328;BME280;20588;48.840;10.064;2023-06-22T01:18:43;96548.84;;;18.67;100.00
34328;BME280;20588;48.840;10.064;2023-06-22T01:21:14;96543.63;;;18.62;100.00
34328;BME280;20588;48.840;10.064;2023-06-22T01:29:05;96544.91;;;18.49;100.00
34328;BME280;20588;48.840;10.064;2023-06-22T01:31:34;96545.16;;;18.43;100.00
34328;BME280;20588;48.840;10.064;2023-06-22T01:34:04;96548.53;;;18.38;100.00
34328;BME280;20588;48.840;10.064;2023-06-22T01:36:32;96557.09;;;18.34;100.00
34328;BME280;20588;48.840;10.064;2023-06-22T01:38:59;96555.28;;;18.29;100.00
34328;BME280;20588;48.840;10.064;2023-06-22T01:41:27;96548.97;;;18.25;100.00
34328;BME280;20588;48.840;10.064;2023-06-22T01:43:56;96553.41;;;18.20;100.00
34328;BME280;20588;48.840;10.064;2023-06-22T01:46:23;96553.13;;;18.16;100.00
34328;BME280;20588;48.840;10.064;2023-06-22T01:48:50;96545.56;;;18.10;100.00
34328;BME280;20588;48.840;10.064;2023-06-22T01:51:16;96551.28;;;18.07;100.00
34328;BME280;20588;48.840;10.064;2023-06-22T01:53:42;96548.16;;;18.05;100.00
34328;BME280;20588;48.840;10.064;2023-06-22T01:56:09;96547.88;;;18.01;100.00
34328;BME280;20588;48.840;10.064;2023-06-22T01:58:36;96554.94;;;18.01;100.00
34328;BME280;20588;48.840;10.064;2023-06-22T02:01:20;96554.13;;;18.00;100.00
34328;BME280;20588;48.840;10.064;2023-06-22T02:06:39;96581.72;;;17.96;100.00
34328;BME280;20588;48.840;10.064;2023-06-22T02:09:15;96580.66;;;17.92;100.00
34328;BME280;20588;48.840;10.064;2023-06-22T02:11:43;96593.69;;;17.87;100.00
34328;BME280;20588;48.840;10.064;2023-06-22T02:14:11;96590.00;;;17.83;100.00
34328;BME280;20588;48.840;10.064;2023-06-22T02:16:38;96594.69;;;17.81;100.00
34328;BME280;20588;48.840;10.064;2023-06-22T02:19:05;96595.69;;;17.80;100.00
34328;BME280;20588;48.840;10.064;2023-06-22T02:21:32;96597.00;;;17.77;100.00
34328;BME280;20588;48.840;10.064;2023-06-22T02:23:59;96597.25;;;17.76;100.00
34328;BME280;20588;48.840;10.064;2023-06-22T02:26:26;96607.13;;;17.74;100.00
34328;BME280;20588;48.840;10.064;2023-06-22T02:28:52;96599.56;;;17.72;100.00
34328;BME280;20588;48.840;10.064;2023-06-22T02:31:19;96596.72;;;17.69;100.00
34328;BME280;20588;48.840;10.064;2023-06-22T02:33:46;96592.00;;;17.66;100.00
34328;BME280;20588;48.840;10.064;2023-06-22T02:36:12;96592.50;;;17.63;100.00
34328;BME280;20588;48.840;10.064;2023-06-22T02:38:42;96584.94;;;17.61;100.00
34328;BME280;20588;48.840;10.064;2023-06-22T02:41:14;96587.78;;;17.60;100.00
34328;BME280;20588;48.840;10.064;2023-06-22T02:43:46;96588.03;;;17.58;100.00
34328;BME280;20588;48.840;10.064;2023-06-22T02:46:13;96586.19;;;17.54;100.00
34328;BME280;20588;48.840;10.064;2023-06-22T02:48:42;96589.28;;;17.51;100.00
34328;BME280;20588;48.840;10.064;2023-06-22T02:51:08;96586.41;;;17.47;100.00
34328;BME280;20588;48.840;10.064;2023-06-22T02:53:34;96577.28;;;17.45;100.00
34328;BME280;20588;48.840;10.064;2023-06-22T02:56:02;96580.94;;;17.44;100.00
34328;BME280;20588;48.840;10.064;2023-06-22T02:58:31;96587.69;;;17.45;100.00
34328;BME280;20588;48.840;10.064;2023-06-22T03:01:04;96586.41;;;17.47;100.00
34328;BME280;20588;48.840;10.064;2023-06-22T03:03:31;96574.47;;;17.51;100.00
34328;BME280;20588;48.840;10.064;2023-06-22T03:05:57;96578.63;;;17.52;100.00
34328;BME280;20588;48.840;10.064;2023-06-22T03:08:23;96576.81;;;17.53;100.00
34328;BME280;20588;48.840;10.064;2023-06-22T03:10:49;96574.47;;;17.51;100.00
34328;BME280;20588;48.840;10.064;2023-06-22T03:13:15;96576.31;;;17.56;100.00
34328;BME280;20588;48.840;10.064;2023-06-22T03:15:42;96564.84;;;17.57;100.00
34328;BME280;20588;48.840;10.064;2023-06-22T03:18:08;96559.13;;;17.55;100.00
34328;BME280;20588;48.840;10.064;2023-06-22T03:20:34;96562.25;;;17.57;100.00
34328;BME280;20588;48.840;10.064;2023-06-22T03:23:00;96558.63;;;17.58;100.00
34328;BME280;20588;48.840;10.064;2023-06-22T03:25:26;96560.97;;;17.59;100.00
34328;BME280;20588;48.840;10.064;2023-06-22T03:27:52;96566.19;;;17.59;100.00
34328;BME280;20588;48.840;10.064;2023-06-22T03:30:18;96561.75;;;17.60;100.00
34328;BME280;20588;48.840;10.064;2023-06-22T03:32:45;96559.94;;;17.60;100.00
34328;BME280;20588;48.840;10.064;2023-06-22T03:35:12;96558.13;;;17.61;100.00
34328;BME280;20588;48.840;10.064;2023-06-22T03:37:39;96552.38;;;17.59;100.00
34328;BME280;20588;48.840;10.064;2023-06-22T03:40:06;96551.34;;;17.60;100.00
34328;BME280;20588;48.840;10.064;2023-06-22T03:42:34;96548.72;;;17.60;100.00
34328;BME280;20588;48.840;10.064;2023-06-22T03:45:02;96544.88;;;17.62;100.00
34328;BME280;20588;48.840;10.064;2023-06-22T03:47:29;96542.00;;;17.64;100.00
34328;BME280;20588;48.840;10.064;2023-06-22T03:49:55;96544.66;;;17.69;100.00
34328;BME280;20588;48.840;10.064;2023-06-22T03:52:24;96537.09;;;17.72;100.00
34328;BME280;20588;48.840;10.064;2023-06-22T03:54:51;96541.53;;;17.77;100.00
34328;BME280;20588;48.840;10.064;2023-06-22T03:57:17;96538.16;;;17.81;100.00
34328;BME280;20588;48.840;10.064;2023-06-22T03:59:43;96538.47;;;17.90;100.00
34328;BME280;20588;48.840;10.064;2023-06-22T04:02:09;96536.41;;;17.97;100.00
34328;BME280;20588;48.840;10.064;2023-06-22T04:04:35;96542.69;;;18.06;100.00
34328;BME280;20588;48.840;10.064;2023-06-22T04:07:01;96542.72;;;18.16;100.00
34328;BME280;20588;48.840;10.064;2023-06-22T04:09:27;96537.00;;;18.24;100.00
34328;BME280;20588;48.840;10.064;2023-06-22T04:11:53;96543.81;;;18.35;100.00
34328;BME280;20588;48.840;10.064;2023-06-22T04:14:19;96540.22;;;18.46;100.00
34328;BME280;20588;48.840;10.064;2023-06-22T04:16:45;96534.50;;;18.59;100.00
34328;BME280;20588;48.840;10.064;2023-06-22T04:19:11;96542.84;;;18.71;100.00
34328;BME280;20588;48.840;10.064;2023-06-22T04:21:42;96548.59;;;18.83;100.00
34328;BME280;20588;48.840;10.064;2023-06-22T04:24:10;96550.66;;;19.01;100.00
34328;BME280;20588;48.840;10.064;2023-06-22T04:26:37;96549.88;;;19.41;100.00
34328;BME280;20588;48.840;10.064;2023-06-22T04:29:04;96551.53;;;20.01;100.00
34328;BME280;20588;48.840;10.064;2023-06-22T04:31:32;96554.19;;;20.44;100.00
34328;BME280;20588;48.840;10.064;2023-06-22T04:34:02;96551.22;;;20.56;100.00
34328;BME280;20588;48.840;10.064;2023-06-22T04:36:36;96542.03;;;20.63;100.00
34328;BME280;20588;48.840;10.064;2023-06-22T04:39:05;96538.59;;;21.06;100.00
34328;BME280;20588;48.840;10.064;2023-06-22T04:41:32;96531.41;;;21.93;100.00
34328;BME280;20588;48.840;10.064;2023-06-22T04:44:08;96529.97;;;22.79;99.54
34328;BME280;20588;48.840;10.064;2023-06-22T04:46:34;96525.69;;;23.61;93.48
34328;BME280;20588;48.840;10.064;2023-06-22T04:49:07;96526.97;;;24.40;86.83
34328;BME280;20588;48.840;10.064;2023-06-22T04:51:39;96521.00;;;24.84;82.61
34328;BME280;20588;48.840;10.064;2023-06-22T04:54:06;96520.56;;;25.43;79.16
34328;BME280;20588;48.840;10.064;2023-06-22T04:56:33;96513.81;;;26.06;74.86
34328;BME280;20588;48.840;10.064;2023-06-22T04:58:59;96514.00;;;26.52;71.62
34328;BME280;20588;48.840;10.064;2023-06-22T05:01:25;96512.88;;;26.96;69.63
34328;BME280;20588;48.840;10.064;2023-06-22T05:03:51;96511.63;;;27.57;67.37
34328;BME280;20588;48.840;10.064;2023-06-22T05:06:24;96512.31;;;28.12;65.20
34328;BME280;20588;48.840;10.064;2023-06-22T05:08:57;96513.94;;;28.46;62.60
34328;BME280;20588;48.840;10.064;2023-06-22T05:11:29;96508.19;;;28.23;58.49
34328;BME280;20588;48.840;10.064;2023-06-22T05:13:55;96499.00;;;28.82;58.52
34328;BME280;20588;48.840;10.064;2023-06-22T05:16:22;96487.13;;;29.00;55.90
34328;BME280;20588;48.840;10.064;2023-06-22T05:18:54;96481.28;;;29.88;55.22
34328;BME280;20588;48.840;10.064;2023-06-22T05:21:24;96476.13;;;30.19;51.79
34328;BME280;20588;48.840;10.064;2023-06-22T05:23:52;96476.47;;;30.57;51.44
34328;BME280;20588;48.840;10.064;2023-06-22T05:26:19;96484.13;;;30.86;50.82
34328;BME280;20588;48.840;10.064;2023-06-22T05:28:46;96471.28;;;30.88;49.35
34328;BME280;20588;48.840;10.064;2023-06-22T05:31:16;96472.09;;;30.49;50.04
34328;BME280;20588;48.840;10.064;2023-06-22T05:33:43;96474.63;;;29.45;51.97
34328;BME280;20588;48.840;10.064;2023-06-22T05:36:09;96476.34;;;29.17;55.27
34328;BME280;20588;48.840;10.064;2023-06-22T05:38:36;96468.66;;;28.92;55.72
34328;BME280;20588;48.840;10.064;2023-06-22T05:41:02;96470.22;;;28.60;56.03
34328;BME280;20588;48.840;10.064;2023-06-22T05:43:29;96470.09;;;28.16;57.35
34328;BME280;20588;48.840;10.064;2023-06-22T05:45:55;96468.59;;;28.27;58.32
34328;BME280;20588;48.840;10.064;2023-06-22T05:48:21;96468.84;;;27.92;58.61
34328;BME280;20588;48.840;10.064;2023-06-22T05:50:48;96453.81;;;27.47;59.40
34328;BME280;20588;48.840;10.064;2023-06-22T05:53:14;96456.19;;;27.69;59.88
34328;BME280;20588;48.840;10.064;2023-06-22T05:55:40;96461.13;;;27.79;59.65
34328;BME280;20588;48.840;10.064;2023-06-22T05:58:06;96459.38;;;27.83;59.45
34328;BME280;20588;48.840;10.064;2023-06-22T06:00:33;96454.09;;;27.54;59.67
34328;BME280;20588;48.840;10.064;2023-06-22T06:02:59;96451.50;;;27.45;60.35
34328;BME280;20588;48.840;10.064;2023-06-22T06:05:29;96454.91;;;27.46;60.23
34328;BME280;20588;48.840;10.064;2023-06-22T06:07:55;96452.13;;;27.71;60.29
34328;BME280;20588;48.840;10.064;2023-06-22T06:10:21;96457.22;;;27.76;58.51
34328;BME280;20588;48.840;10.064;2023-06-22T06:12:47;96458.44;;;27.87;58.16
34328;BME280;20588;48.840;10.064;2023-06-22T06:15:14;96451.56;;;28.16;56.64
34328;BME280;20588;48.840;10.064;2023-06-22T06:17:50;96456.78;;;28.03;56.03
34328;BME280;20588;48.840;10.064;2023-06-22T06:20:21;96450.44;;;28.37;54.93
34328;BME280;20588;48.840;10.064;2023-06-22T06:22:48;96452.78;;;28.59;53.97
34328;BME280;20588;48.840;10.064;2023-06-22T06:25:15;96448.84;;;28.77;53.60
34328;BME280;20588;48.840;10.064;2023-06-22T06:27:46;96450.50;;;29.26;52.87
34328;BME280;20588;48.840;10.064;2023-06-22T06:30:14;96446.84;;;29.07;52.68
34328;BME280;20588;48.840;10.064;2023-06-22T06:32:41;96443.66;;;29.37;52.34
34328;BME280;20588;48.840;10.064;2023-06-22T06:35:08;96434.56;;;29.99;50.16
34328;BME280;20588;48.840;10.064;2023-06-22T06:37:40;96441.34;;;30.63;49.19
34328;BME280;20588;48.840;10.064;2023-06-22T06:40:08;96434.63;;;30.81;48.73
34328;BME280;20588;48.840;10.064;2023-06-22T06:42:37;96433.78;;;31.08;46.38
34328;BME280;20588;48.840;10.064;2023-06-22T06:45:06;96436.75;;;30.76;47.01
34328;BME280;20588;48.840;10.064;2023-06-22T06:47:33;96432.59;;;31.06;47.35
34328;BME280;20588;48.840;10.064;2023-06-22T06:49:59;96435.59;;;31.51;46.69
34328;BME280;20588;48.840;10.064;2023-06-22T06:52:25;96422.94;;;31.29;45.89
34328;BME280;20588;48.840;10.064;2023-06-22T06:54:52;96425.88;;;31.59;47.15
34328;BME280;20588;48.840;10.064;2023-06-22T06:57:18;96428.75;;;31.50;46.22
34328;BME280;20588;48.840;10.064;2023-06-22T06:59:46;96425.38;;;31.69;46.68
34328;BME280;20588;48.840;10.064;2023-06-22T07:02:12;96415.34;;;31.97;45.23
34328;BME280;20588;48.840;10.064;2023-06-22T07:04:38;96421.50;;;32.35;45.57
34328;BME280;20588;48.840;10.064;2023-06-22T07:07:04;96423.38;;;32.95;45.47
34328;BME280;20588;48.840;10.064;2023-06-22T07:09:30;96414.84;;;32.86;43.39
34328;BME280;20588;48.840;10.064;2023-06-22T07:11:56;96415.78;;;33.20;42.74
34328;BME280;20588;48.840;10.064;2023-06-22T07:14:22;96417.94;;;33.60;42.79
34328;BME280;20588;48.840;10.064;2023-06-22T07:16:48;96409.41;;;33.77;41.23
34328;BME280;20588;48.840;10.064;2023-06-22T07:19:14;96404.13;;;34.39;41.86
34328;BME280;20588;48.840;10.064;2023-06-22T07:21:40;96412.69;;;34.52;39.30
34328;BME280;20588;48.840;10.064;2023-06-22T07:24:07;96411.44;;;34.79;40.44
34328;BME280;20588;48.840;10.064;2023-06-22T07:26:33;96406.41;;;35.18;38.14
34328;BME280;20588;48.840;10.064;2023-06-22T07:29:00;96408.81;;;35.26;37.94
34328;BME280;20588;48.840;10.064;2023-06-22T07:31:26;96408.31;;;35.61;37.92
34328;BME280;20588;48.840;10.064;2023-06-22T07:33:52;96419.63;;;35.37;37.77
34328;BME280;20588;48.840;10.064;2023-06-22T07:36:18;96410.97;;;35.61;37.18
34328;BME280;20588;48.840;10.064;2023-06-22T07:38:44;96407.94;;;35.15;36.41
34328;BME280;20588;48.840;10.064;2023-06-22T07:41:11;96411.78;;;34.41;36.64
34328;BME280;20588;48.840;10.064;2023-06-22T07:43:37;96407.63;;;34.14;37.29
34328;BME280;20588;48.840;10.064;2023-06-22T07:46:03;96405.50;;;34.30;37.41
34328;BME280;20588;48.840;10.064;2023-06-22T07:48:30;96408.31;;;33.55;38.86
34328;BME280;20588;48.840;10.064;2023-06-22T07:50:56;96407.88;;;34.02;38.21
34328;BME280;20588;48.840;10.064;2023-06-22T07:53:22;96405.72;;;34.47;37.10
34328;BME280;20588;48.840;10.064;2023-06-22T07:55:49;96392.94;;;34.30;37.56
34328;BME280;20588;48.840;10.064;2023-06-22T07:58:15;96407.34;;;34.52;37.45
34328;BME280;20588;48.840;10.064;2023-06-22T08:00:42;96402.47;;;34.61;37.77
34328;BME280;20588;48.840;10.064;2023-06-22T08:03:08;96393.00;;;35.14;37.50
34328;BME280;20588;48.840;10.064;2023-06-22T08:05:34;96390.59;;;34.99;37.35
34328;BME280;20588;48.840;10.064;2023-06-22T08:08:00;96393.34;;;35.09;37.33
34328;BME280;20588;48.840;10.064;2023-06-22T08:10:26;96386.44;;;35.05;37.72
34328;BME280;20588;48.840;10.064;2023-06-22T08:12:52;96388.06;;;35.70;37.50
34328;BME280;20588;48.840;10.064;2023-06-22T08:15:18;96380.91;;;35.88;36.76
34328;BME280;20588;48.840;10.064;2023-06-22T08:17:45;96375.38;;;36.43;37.88
34328;BME280;20588;48.840;10.064;2023-06-22T08:20:14;96379.63;;;36.58;36.67
34328;BME280;20588;48.840;10.064;2023-06-22T08:22:43;96378.94;;;37.10;36.49
34328;BME280;20588;48.840;10.064;2023-06-22T08:25:10;96366.25;;;37.07;36.10
34328;BME280;20588;48.840;10.064;2023-06-22T08:27:36;96361.28;;;37.33;34.99
34328;BME280;20588;48.840;10.064;2023-06-22T08:30:03;96354.75;;;37.52;34.67
34328;BME280;20588;48.840;10.064;2023-06-22T08:32:29;96355.91;;;37.44;35.59
34328;BME280;20588;48.840;10.064;2023-06-22T08:34:56;96358.91;;;37.74;34.96
34328;BME280;20588;48.840;10.064;2023-06-22T08:37:23;96351.25;;;37.72;33.80
34328;BME280;20588;48.840;10.064;2023-06-22T08:39:58;96348.16;;;37.74;34.08
34328;BME280;20588;48.840;10.064;2023-06-22T08:42:24;96337.84;;;37.48;34.82
34328;BME280;20588;48.840;10.064;2023-06-22T08:44:51;96340.94;;;37.43;34.64
34328;BME280;20588;48.840;10.064;2023-06-22T08:47:17;96332.81;;;37.57;34.59
34328;BME280;20588;48.840;10.064;2023-06-22T08:49:43;96332.88;;;37.36;35.10
34328;BME280;20588;48.840;10.064;2023-06-22T08:52:09;96331.19;;;36.12;36.25
34328;BME280;20588;48.840;10.064;2023-06-22T08:54:36;96328.59;;;36.33;38.13
34328;BME280;20588;48.840;10.064;2023-06-22T08:57:02;96322.38;;;36.11;36.27
34328;BME280;20588;48.840;10.064;2023-06-22T08:59:28;96321.78;;;36.78;35.96
34328;BME280;20588;48.840;10.064;2023-06-22T09:01:55;96323.69;;;36.77;36.57
34328;BME280;20588;48.840;10.064;2023-06-22T09:04:21;96329.41;;;36.58;36.74
34328;BME280;20588;48.840;10.064;2023-06-22T09:06:50;96329.00;;;36.49;36.73
34328;BME280;20588;48.840;10.064;2023-06-22T09:09:18;96327.13;;;36.92;36.94
34328;BME280;20588;48.840;10.064;2023-06-22T09:11:44;96323.31;;;37.21;37.10
34328;BME280;20588;48.840;10.064;2023-06-22T09:14:11;96317.31;;;38.10;35.68
34328;BME280;20588;48.840;10.064;2023-06-22T09:16:38;96323.50;;;37.97;35.53
34328;BME280;20588;48.840;10.064;2023-06-22T09:19:04;96319.41;;;37.46;35.59
34328;BME280;20588;48.840;10.064;2023-06-22T09:21:30;96323.31;;;36.82;36.39
34328;BME280;20588;48.840;10.064;2023-06-22T09:23:56;96324.84;;;37.22;35.81
34328;BME280;20588;48.840;10.064;2023-06-22T09:26:22;96332.44;;;37.62;35.39
34328;BME280;20588;48.840;10.064;2023-06-22T09:28:49;96347.31;;;37.98;35.63
34328;BME280;20588;48.840;10.064;2023-06-22T09:31:15;96357.19;;;38.91;33.66
34328;BME280;20588;48.840;10.064;2023-06-22T09:33:42;96358.69;;;39.77;34.12
34328;BME280;20588;48.840;10.064;2023-06-22T09:36:09;96364.06;;;40.14;32.02
34328;BME280;20588;48.840;10.064;2023-06-22T09:38:38;96360.78;;;40.29;32.57
34328;BME280;20588;48.840;10.064;2023-06-22T09:41:04;96360.91;;;39.52;33.06
34328;BME280;20588;48.840;10.064;2023-06-22T09:43:32;96353.50;;;40.56;32.26
34328;BME280;20588;48.840;10.064;2023-06-22T09:45:58;96358.56;;;40.51;31.61
34328;BME280;20588;48.840;10.064;2023-06-22T09:48:24;96361.81;;;40.69;32.73
34328;BME280;20588;48.840;10.064;2023-06-22T09:50:50;96360.28;;;40.68;31.95
34328;BME280;20588;48.840;10.064;2023-06-22T09:53:16;96363.47;;;40.33;32.48
34328;BME280;20588;48.840;10.064;2023-06-22T09:55:42;96367.13;;;40.99;33.48
34328;BME280;20588;48.840;10.064;2023-06-22T09:58:08;96364.06;;;41.66;32.14
34328;BME280;20588;48.840;10.064;2023-06-22T10:00:35;96365.03;;;42.34;31.99
34328;BME280;20588;48.840;10.064;2023-06-22T10:03:01;96361.13;;;42.35;31.20
34328;BME280;20588;48.840;10.064;2023-06-22T10:05:27;96371.06;;;42.94;30.79
34328;BME280;20588;48.840;10.064;2023-06-22T10:07:53;96357.88;;;43.40;29.65
34328;BME280;20588;48.840;10.064;2023-06-22T10:10:19;96356.47;;;43.64;27.93
34328;BME280;20588;48.840;10.064;2023-06-22T10:12:55;96352.47;;;43.08;28.77
34328;BME280;20588;48.840;10.064;2023-06-22T10:15:22;96348.22;;;43.39;29.71
34328;BME280;20588;48.840;10.064;2023-06-22T10:17:49;96345.81;;;43.57;29.33
34328;BME280;20588;48.840;10.064;2023-06-22T10:20:15;96337.03;;;43.53;29.57
34328;BME280;20588;48.840;10.064;2023-06-22T10:22:44;96330.31;;;43.58;29.65
34328;BME280;20588;48.840;10.064;2023-06-22T10:25:12;96322.06;;;43.61;29.44
34328;BME280;20588;48.840;10.064;2023-06-22T10:27:38;96315.13;;;43.16;29.14
34328;BME280;20588;48.840;10.064;2023-06-22T10:30:08;96303.09;;;42.52;29.82
34328;BME280;20588;48.840;10.064;2023-06-22T10:32:35;96300.13;;;42.47;30.77
34328;BME280;20588;48.840;10.064;2023-06-22T10:35:02;96298.31;;;42.76;30.27
34328;BME280;20588;48.840;10.064;2023-06-22T10:37:28;96291.91;;;43.15;30.25
34328;BME280;20588;48.840;10.064;2023-06-22T10:39:54;96292.94;;;43.05;28.57
34328;BME280;20588;48.840;10.064;2023-06-22T10:42:20;96292.25;;;42.52;29.65
34328;BME280;20588;48.840;10.064;2023-06-22T10:44:46;96287.06;;;41.90;30.54
34328;BME280;20588;48.840;10.064;2023-06-22T10:47:12;96288.22;;;41.89;30.43
34328;BME280;20588;48.840;10.064;2023-06-22T10:49:39;96281.78;;;41.83;31.16
34328;BME280;20588;48.840;10.064;2023-06-22T10:52:08;96271.88;;;42.12;30.24
34328;BME280;20588;48.840;10.064;2023-06-22T10:54:35;96273.88;;;41.53;30.79
34328;BME280;20588;48.840;10.064;2023-06-22T10:57:03;96265.03;;;42.08;30.34
34328;BME280;20588;48.840;10.064;2023-06-22T10:59:29;96274.41;;;42.55;29.78
34328;BME280;20588;48.840;10.064;2023-06-22T11:01:58;96287.34;;;42.96;29.40
34328;BME280;20588;48.840;10.064;2023-06-22T11:04:25;96283.34;;;43.16;30.07
34328;BME280;20588;48.840;10.064;2023-06-22T11:06:51;96284.88;;;43.46;30.70
34328;BME280;20588;48.840;10.064;2023-06-22T11:09:17;96280.00;;;42.80;28.70
34328;BME280;20588;48.840;10.064;2023-06-22T11:11:47;96268.31;;;42.67;28.29
34328;BME280;20588;48.840;10.064;2023-06-22T11:14:14;96265.09;;;42.04;29.92
34328;BME280;20588;48.840;10.064;2023-06-22T11:16:40;96258.84;;;41.88;30.32
34328;BME280;20588;48.840;10.064;2023-06-22T11:19:06;96257.44;;;41.01;30.95
34328;BME280;20588;48.840;10.064;2023-06-22T11:21:32;96263.16;;;40.08;31.16
34328;BME280;20588;48.840;10.064;2023-06-22T11:24:00;96257.47;;;39.69;33.00
34328;BME280;20588;48.840;10.064;2023-06-22T11:26:26;96251.59;;;39.77;33.49
34328;BME280;20588;48.840;10.064;2023-06-22T11:28:55;96250.19;;;39.66;32.91
34328;BME280;20588;48.840;10.064;2023-06-22T11:31:21;96243.53;;;39.06;33.07
34328;BME280;20588;48.840;10.064;2023-06-22T11:33:47;96252.09;;;38.94;33.71
34328;BME280;20588;48.840;10.064;2023-06-22T11:36:14;96256.22;;;39.06;33.79
34328;BME280;20588;48.840;10.064;2023-06-22T11:38:41;96261.66;;;39.39;33.68
34328;BME280;20588;48.840;10.064;2023-06-22T11:41:09;96254.28;;;39.77;33.18
34328;BME280;20588;48.840;10.064;2023-06-22T11:43:36;96256.13;;;40.14;34.11
34328;BME280;20588;48.840;10.064;2023-06-22T11:46:05;96256.00;;;40.21;31.78
34328;BME280;20588;48.840;10.064;2023-06-22T11:48:32;96251.84;;;39.90;32.77
34328;BME280;20588;48.840;10.064;2023-06-22T11:50:58;96248.94;;;39.06;33.52
34328;BME280;20588;48.840;10.064;2023-06-22T11:53:25;96243.16;;;39.41;33.15
34328;BME280;20588;48.840;10.064;2023-06-22T11:55:52;96246.63;;;40.02;33.67
34328;BME280;20588;48.840;10.064;2023-06-22T11:58:19;96246.91;;;40.38;32.20
34328;BME280;20588;48.840;10.064;2023-06-22T12:00:45;96244.91;;;40.65;31.90
34328;BME280;20588;48.840;10.064;2023-06-22T12:03:12;96240.38;;;41.08;31.84
34328;BME280;20588;48.840;10.064;2023-06-22T12:05:38;96237.16;;;41.72;32.12
34328;BME280;20588;48.840;10.064;2023-06-22T12:08:05;96229.47;;;42.06;30.49
34328;BME280;20588;48.840;10.064;2023-06-22T12:10:31;96226.13;;;41.43;32.18
34328;BME280;20588;48.840;10.064;2023-06-22T12:12:57;96226.84;;;41.47;32.13
34328;BME280;20588;48.840;10.064;2023-06-22T12:15:24;96225.69;;;41.05;31.45
34328;BME280;20588;48.840;10.064;2023-06-22T12:17:50;96227.47;;;39.63;33.47
34328;BME280;20588;48.840;10.064;2023-06-22T12:20:16;96222.47;;;39.31;33.14
34328;BME280;20588;48.840;10.064;2023-06-22T12:22:43;96231.22;;;39.39;34.29
34328;BME280;20588;48.840;10.064;2023-06-22T12:25:09;96226.22;;;39.41;34.36
34328;BME280;20588;48.840;10.064;2023-06-22T12:27:36;96234.81;;;39.29;35.45
34328;BME280;20588;48.840;10.064;2023-06-22T12:30:03;96233.44;;;39.14;35.58
34328;BME280;20588;48.840;10.064;2023-06-22T12:32:29;96233.97;;;38.54;34.81
34328;BME280;20588;48.840;10.064;2023-06-22T12:34:56;96229.28;;;38.11;35.29
34328;BME280;20588;48.840;10.064;2023-06-22T12:37:22;96222.50;;;37.85;36.17
34328;BME280;20588;48.840;10.064;2023-06-22T12:39:50;96226.78;;;37.72;37.33
34328;BME280;20588;48.840;10.064;2023-06-22T12:42:16;96223.69;;;37.77;36.25
34328;BME280;20588;48.840;10.064;2023-06-22T12:44:43;96199.03;;;37.89;36.23
34328;BME280;20588;48.840;10.064;2023-06-22T12:47:09;96184.41;;;37.93;36.78
34328;BME280;20588;48.840;10.064;2023-06-22T12:49:36;96190.91;;;37.96;36.46
34328;BME280;20588;48.840;10.064;2023-06-22T12:52:02;96203.91;;;38.15;36.14
34328;BME280;20588;48.840;10.064;2023-06-22T12:54:29;96208.59;;;38.52;36.04
34328;BME280;20588;48.840;10.064;2023-06-22T12:56:55;96210.47;;;39.02;35.27